Time;durP1;ratioP1;P1;durP2;ratioP2;P2;SDS_P1;SDS_P2;PMS_P1;PMS_P2;Temp;Humidity;BMP_temperature;BMP_pressure;BME280_temperature;BME280_humidity;BME280_pressure;Samples;Min_cycle;Max_cycle;Signal;HPM_P1;HPM_P2
2023/02/03 00:01:17;;;;;;;21.65;12.98;;;11.40;1.00;;;;;;5032642;28;20045;-51
2023/02/03 00:03:43;;;;;;;20.27;14.45;;;11.40;1.00;;;;;;5032931;28;20494;-50
2023/02/03 00:06:08;;;;;;;22.40;14.35;;;11.40;1.00;;;;;;5022807;28;20386;-49
2023/02/03 00:08:37;;;;;;;21.02;14.30;;;11.40;1.00;;;;;;5033286;28;20040;-49
2023/02/03 00:11:03;;;;;;;23.67;14.00;;;11.40;1.00;;;;;;5031543;28;20494;-54
2023/02/03 00:13:29;;;;;;;21.52;14.10;;;11.40;1.00;;;;;;5032762;28;20104;-48
2023/02/03 00:15:54;;;;;;;23.17;13.90;;;11.30;1.00;;;;;;5031516;28;20542;-49
2023/02/03 00:18:20;;;;;;;21.48;13.80;;;11.30;1.00;;;;;;5032757;28;20025;-49
2023/02/03 00:20:46;;;;;;;22.58;14.98;;;11.30;1.00;;;;;;5032252;28;20057;-48
2023/02/03 00:23:12;;;;;;;20.83;14.32;;;11.30;1.00;;;;;;5021504;28;20030;-49
2023/02/03 00:25:38;;;;;;;25.35;13.93;;;11.30;1.00;;;;;;5030693;28;20544;-50
2023/02/03 00:28:04;;;;;;;22.67;13.80;;;11.40;1.00;;;;;;5027345;28;20095;-50
2023/02/03 00:30:32;;;;;;;22.15;14.73;;;11.30;1.00;;;;;;5031340;28;20133;-49
2023/02/03 00:32:58;;;;;;;22.20;14.68;;;11.20;1.00;;;;;;5032583;28;20025;-49
2023/02/03 00:35:23;;;;;;;26.05;14.75;;;11.20;1.00;;;;;;5030935;28;20376;-54
2023/02/03 00:37:54;;;;;;;21.35;14.30;;;11.30;1.00;;;;;;5032499;28;20029;-49
2023/02/03 00:40:21;;;;;;;21.48;13.75;;;11.30;1.00;;;;;;5031894;28;20029;-49
2023/02/03 00:42:47;;;;;;;20.52;13.98;;;11.30;1.00;;;;;;5032626;28;20041;-49
2023/02/03 00:45:13;;;;;;;24.30;14.70;;;11.20;1.00;;;;;;5031986;28;20499;-49
2023/02/03 00:47:38;;;;;;;23.63;14.30;;;11.30;1.00;;;;;;5032092;28;20086;-48
2023/02/03 00:50:05;;;;;;;24.60;14.20;;;11.20;1.00;;;;;;5032289;28;20075;-49
2023/02/03 00:52:31;;;;;;;18.88;12.88;;;11.20;1.00;;;;;;5031858;28;20371;-48
2023/02/03 00:54:56;;;;;;;21.13;14.80;;;11.20;1.00;;;;;;5032073;28;20028;-49
2023/02/03 00:57:22;;;;;;;20.90;13.93;;;11.20;1.00;;;;;;5031779;28;20033;-48
2023/02/03 00:59:48;;;;;;;19.60;13.20;;;11.10;1.00;;;;;;5032295;28;20482;-49
2023/02/03 01:02:15;;;;;;;20.02;13.18;;;11.10;1.00;;;;;;5030923;28;20088;-49
2023/02/03 01:04:41;;;;;;;23.58;13.88;;;11.10;1.00;;;;;;5032192;28;20487;-50
2023/02/03 01:07:07;;;;;;;20.58;12.88;;;11.10;1.00;;;;;;5031759;28;20037;-52
2023/02/03 01:09:34;;;;;;;20.92;13.05;;;11.10;1.00;;;;;;5032051;28;20111;-49
2023/02/03 01:11:59;;;;;;;21.33;12.88;;;11.10;1.00;;;;;;5031727;28;20063;-50
2023/02/03 01:14:25;;;;;;;21.85;12.95;;;11.10;1.00;;;;;;5031431;28;20033;-48
2023/02/03 01:16:51;;;;;;;22.45;13.07;;;11.10;1.00;;;;;;5031949;28;20104;-52
2023/02/03 01:19:17;;;;;;;21.88;13.40;;;11.10;1.00;;;;;;5031472;28;20038;-53
2023/02/03 01:21:42;;;;;;;22.30;13.48;;;11.00;1.00;;;;;;5031902;28;20017;-52
2023/02/03 01:24:11;;;;;;;18.33;12.70;;;11.00;1.00;;;;;;5031470;28;20060;-49
2023/02/03 01:26:37;;;;;;;18.02;12.48;;;11.00;1.00;;;;;;5031221;28;20037;-49
2023/02/03 01:29:02;;;;;;;20.45;13.55;;;11.00;1.00;;;;;;5031332;28;20029;-49
2023/02/03 01:31:35;;;;;;;24.55;14.15;;;10.80;1.00;;;;;;5031227;28;20079;-50
2023/02/03 01:34:01;;;;;;;20.17;12.07;;;10.90;1.00;;;;;;5029029;28;20112;-49
2023/02/03 01:36:29;;;;;;;20.02;13.50;;;10.90;1.00;;;;;;5025691;28;20025;-50
2023/02/03 01:38:55;;;;;;;18.70;12.98;;;10.90;1.00;;;;;;5031618;28;20029;-52
2023/02/03 01:41:24;;;;;;;19.85;12.50;;;11.00;1.00;;;;;;5031394;28;20434;-49
2023/02/03 01:43:52;;;;;;;19.67;12.95;;;10.90;1.00;;;;;;5035175;28;20033;-48
2023/02/03 01:46:45;;;;;;;21.88;12.98;;;10.90;1.00;;;;;;5034247;28;20037;-48
2023/02/03 01:49:28;;;;;;;21.42;11.95;;;10.90;1.00;;;;;;5024818;28;20040;-49
2023/02/03 01:51:54;;;;;;;20.55;12.43;;;10.90;1.00;;;;;;5034104;28;20037;-48
2023/02/03 01:54:30;;;;;;;19.42;12.48;;;11.00;1.00;;;;;;5035522;28;20083;-49
2023/02/03 01:57:00;;;;;;;16.40;12.32;;;11.00;1.00;;;;;;5035198;28;20052;-48
2023/02/03 01:59:27;;;;;;;18.58;12.23;;;10.90;1.00;;;;;;5034900;28;20029;-51
2023/02/03 02:01:53;;;;;;;17.48;12.57;;;10.90;1.00;;;;;;5034559;28;20048;-50
2023/02/03 02:04:21;;;;;;;17.08;12.35;;;10.90;1.00;;;;;;5035104;28;20025;-49
2023/02/03 02:06:47;;;;;;;20.48;12.18;;;10.90;1.00;;;;;;5035168;28;20022;-49
2023/02/03 02:09:13;;;;;;;17.30;11.85;;;10.80;1.00;;;;;;5035208;28;20040;-48
2023/02/03 02:11:39;;;;;;;19.50;12.52;;;10.80;1.00;;;;;;5035466;28;20380;-48
2023/02/03 02:14:05;;;;;;;18.75;11.52;;;10.90;1.00;;;;;;5034601;28;20029;-48
2023/02/03 02:16:56;;;;;;;18.13;11.95;;;10.80;1.00;;;;;;5030662;28;20026;-48
2023/02/03 02:20:00;;;;;;;18.83;11.63;;;10.90;1.00;;;;;;5020623;28;20041;-49
2023/02/03 02:23:01;;;;;;;15.93;11.95;;;10.80;1.00;;;;;;5034185;28;20025;-50
2023/02/03 02:25:45;;;;;;;20.70;12.07;;;10.80;1.00;;;;;;5033453;28;20527;-49
2023/02/03 02:28:20;;;;;;;16.80;11.82;;;10.60;1.00;;;;;;5032306;28;20483;-48
2023/02/03 02:31:03;;;;;;;19.85;12.48;;;10.70;1.00;;;;;;5034197;28;20053;-50
2023/02/03 02:33:35;;;;;;;16.70;12.18;;;10.70;1.00;;;;;;5032853;28;20037;-51
2023/02/03 02:36:07;;;;;;;18.05;12.25;;;10.60;1.00;;;;;;5032330;28;20083;-48
2023/02/03 02:38:52;;;;;;;19.67;12.45;;;10.60;1.00;;;;;;5034321;28;20033;-49
2023/02/03 02:41:37;;;;;;;17.92;11.90;;;10.60;1.00;;;;;;5033705;28;20044;-49
2023/02/03 02:44:13;;;;;;;21.20;13.87;;;10.60;1.00;;;;;;5033579;28;20048;-48
2023/02/03 02:47:01;;;;;;;22.50;12.95;;;10.60;1.00;;;;;;5026120;28;20079;-49
2023/02/03 02:49:43;;;;;;;19.85;12.98;;;10.50;1.00;;;;;;5031280;28;20040;-51
2023/02/03 02:52:13;;;;;;;17.38;13.02;;;10.50;1.00;;;;;;5033840;28;20513;-48
2023/02/03 02:54:43;;;;;;;18.20;12.43;;;10.50;1.00;;;;;;5033281;28;20022;-48
2023/02/03 02:57:11;;;;;;;21.75;13.32;;;10.50;1.00;;;;;;5033870;28;20031;-52
2023/02/03 02:59:37;;;;;;;18.70;13.05;;;10.40;1.00;;;;;;5032896;28;20021;-49
2023/02/03 03:02:03;;;;;;;19.00;12.70;;;10.40;1.00;;;;;;5032024;28;20056;-49
2023/02/03 03:04:32;;;;;;;19.10;11.93;;;10.30;1.00;;;;;;5032915;28;20083;-49
2023/02/03 03:07:21;;;;;;;19.27;12.57;;;10.20;1.00;;;;;;5037682;28;20508;-48
2023/02/03 03:10:10;;;;;;;19.13;12.68;;;10.30;1.00;;;;;;5033970;28;20026;-48
2023/02/03 03:12:42;;;;;;;20.75;13.07;;;10.30;1.00;;;;;;5022839;28;20029;-47
2023/02/03 03:15:23;;;;;;;18.13;12.70;;;10.10;1.00;;;;;;5033113;28;20022;-49
2023/02/03 03:18:19;;;;;;;18.63;12.63;;;10.30;1.00;;;;;;5024122;28;20037;-50
2023/02/03 03:20:47;;;;;;;20.48;13.88;;;10.20;1.00;;;;;;5033137;28;20580;-48
2023/02/03 03:23:25;;;;;;;21.23;14.93;;;10.20;1.00;;;;;;5033415;28;20383;-48
2023/02/03 03:25:58;;;;;;;19.80;13.50;;;10.20;1.00;;;;;;5033176;28;20037;-50
2023/02/03 03:28:34;;;;;;;18.20;12.83;;;10.20;1.00;;;;;;5033194;28;20025;-48
2023/02/03 03:31:03;;;;;;;18.63;13.03;;;10.20;1.00;;;;;;5032402;28;20026;-49
2023/02/03 03:33:28;;;;;;;16.50;13.23;;;10.20;1.00;;;;;;5026223;28;20086;-48
2023/02/03 03:36:22;;;;;;;19.60;12.83;;;10.20;1.00;;;;;;5031565;28;20112;-48
2023/02/03 03:39:14;;;;;;;17.10;12.70;;;10.10;1.00;;;;;;5028772;28;20497;-49
2023/02/03 03:41:42;;;;;;;20.00;12.70;;;10.20;1.00;;;;;;5023234;28;20039;-49
2023/02/03 03:44:13;;;;;;;20.33;12.77;;;10.20;1.00;;;;;;5032676;28;20120;-48
2023/02/03 03:50:04;;;;;;;17.90;12.00;;;10.20;1.00;;;;;;5023653;28;20441;-51
2023/02/03 03:52:34;;;;;;;16.80;10.80;;;10.10;1.00;;;;;;5031489;28;20029;-50
2023/02/03 03:55:02;;;;;;;15.23;11.47;;;10.20;1.00;;;;;;5032202;28;20022;-49
2023/02/03 03:57:40;;;;;;;15.73;11.20;;;10.20;1.00;;;;;;5033797;28;20452;-49
2023/02/03 04:00:09;;;;;;;18.23;12.40;;;10.20;1.00;;;;;;5021804;28;20021;-48
2023/02/03 04:02:39;;;;;;;17.67;11.33;;;10.20;1.00;;;;;;5032546;28;20045;-48
2023/02/03 04:05:05;;;;;;;18.13;11.80;;;10.20;1.00;;;;;;5033049;28;20048;-49
2023/02/03 04:07:41;;;;;;;18.53;12.33;;;10.30;1.00;;;;;;5042277;28;20040;-49
2023/02/03 04:10:17;;;;;;;19.40;13.03;;;10.30;1.00;;;;;;5034750;28;20395;-53
2023/02/03 04:12:43;;;;;;;18.87;13.20;;;10.30;1.00;;;;;;5033230;28;20330;-48
2023/02/03 04:15:09;;;;;;;21.03;13.80;;;10.30;1.00;;;;;;5031779;28;20030;-49
2023/02/03 04:17:35;;;;;;;18.23;13.73;;;10.20;1.00;;;;;;5033268;28;20048;-49
2023/02/03 04:20:02;;;;;;;23.23;13.50;;;10.20;1.00;;;;;;5031267;28;20029;-49
2023/02/03 04:22:28;;;;;;;22.23;13.47;;;10.20;1.00;;;;;;5023538;28;20026;-50
2023/02/03 04:24:54;;;;;;;17.53;14.23;;;10.10;1.00;;;;;;5043111;28;20034;-49
2023/02/03 04:27:19;;;;;;;23.33;13.50;;;10.10;1.00;;;;;;5031650;28;20434;-49
2023/02/03 04:29:46;;;;;;;21.03;14.63;;;10.00;1.00;;;;;;5032273;28;20029;-51
2023/02/03 04:32:12;;;;;;;22.50;14.90;;;10.00;1.00;;;;;;5032578;28;20044;-48
2023/02/03 04:34:37;;;;;;;19.53;14.90;;;9.90;1.00;;;;;;5032103;28;20387;-48
2023/02/03 04:37:03;;;;;;;20.97;14.57;;;10.00;1.00;;;;;;5032165;28;20029;-49
2023/02/03 04:39:28;;;;;;;20.33;14.97;;;9.90;1.00;;;;;;5032590;28;20049;-48
2023/02/03 04:41:54;;;;;;;21.60;14.83;;;9.80;1.00;;;;;;5032189;28;20412;-49
2023/02/03 04:44:20;;;;;;;20.30;14.77;;;9.90;1.00;;;;;;5032749;28;20063;-50
2023/02/03 04:46:45;;;;;;;21.90;14.47;;;9.80;1.00;;;;;;5032318;28;20328;-49
2023/02/03 04:49:11;;;;;;;20.03;14.30;;;9.90;1.00;;;;;;5032299;28;20053;-49
2023/02/03 04:51:37;;;;;;;23.97;15.50;;;9.80;1.00;;;;;;5032444;28;20057;-50
2023/02/03 04:54:02;;;;;;;19.63;14.60;;;9.70;1.00;;;;;;5032427;28;20091;-51
2023/02/03 04:56:28;;;;;;;22.20;15.47;;;9.70;1.00;;;;;;5031639;28;20383;-55
2023/02/03 04:58:53;;;;;;;21.40;15.17;;;9.70;1.00;;;;;;5031942;28;20036;-49
2023/02/03 05:01:19;;;;;;;23.20;15.23;;;9.60;1.00;;;;;;5027074;28;20113;-51
2023/02/03 05:03:45;;;;;;;20.40;13.93;;;9.60;1.00;;;;;;5044613;28;20064;-51
2023/02/03 05:06:10;;;;;;;23.30;15.50;;;9.60;1.00;;;;;;5029575;28;20033;-49
2023/02/03 05:08:36;;;;;;;26.60;14.53;;;9.60;1.00;;;;;;5040095;28;20108;-51
2023/02/03 05:11:01;;;;;;;20.60;14.60;;;9.60;1.00;;;;;;5031534;28;20032;-51
2023/02/03 05:13:27;;;;;;;24.47;16.73;;;9.60;1.00;;;;;;5031844;28;20108;-49
2023/02/03 05:15:53;;;;;;;23.60;14.67;;;9.70;1.00;;;;;;5031483;28;20026;-49
2023/02/03 05:18:18;;;;;;;23.20;14.13;;;9.60;1.00;;;;;;5025802;28;20120;-53
2023/02/03 05:20:44;;;;;;;26.30;14.97;;;9.60;1.00;;;;;;5031775;28;20022;-52
2023/02/03 05:23:09;;;;;;;21.13;15.20;;;9.60;1.00;;;;;;5028188;28;20407;-51
2023/02/03 05:25:35;;;;;;;26.63;15.10;;;9.60;1.00;;;;;;5031457;28;20049;-50
2023/02/03 05:28:01;;;;;;;21.67;14.93;;;9.60;1.00;;;;;;5022095;28;20383;-50
2023/02/03 05:30:26;;;;;;;23.33;14.93;;;9.60;1.00;;;;;;5027529;28;20071;-50
2023/02/03 05:32:52;;;;;;;22.77;15.50;;;9.60;1.00;;;;;;5029600;28;20411;-53
2023/02/03 05:35:17;;;;;;;20.00;14.47;;;9.50;1.00;;;;;;5031617;28;20030;-53
2023/02/03 05:37:44;;;;;;;23.53;15.50;;;9.50;1.00;;;;;;5031772;28;20451;-54
2023/02/03 05:42:55;;;;;;;21.13;14.97;;;9.50;1.00;;;;;;5028828;28;20103;-49
2023/02/03 05:45:21;;;;;;;20.43;15.70;;;9.50;1.00;;;;;;5031338;28;20029;-50
2023/02/03 05:47:46;;;;;;;21.60;15.60;;;9.50;1.00;;;;;;5031786;28;20076;-50
2023/02/03 05:50:12;;;;;;;21.27;15.37;;;9.40;1.00;;;;;;5029786;28;20030;-50
2023/02/03 05:52:38;;;;;;;23.40;15.27;;;9.30;1.00;;;;;;5031864;28;20495;-49
2023/02/03 05:55:03;;;;;;;20.80;15.73;;;9.50;1.00;;;;;;5031250;28;20033;-50
2023/02/03 05:57:29;;;;;;;24.03;15.80;;;9.40;1.00;;;;;;5031852;28;20021;-50
2023/02/03 05:59:55;;;;;;;20.67;14.83;;;9.40;1.00;;;;;;5031234;28;20475;-50
2023/02/03 06:02:20;;;;;;;19.87;14.93;;;9.30;1.00;;;;;;5031074;28;20125;-50
2023/02/03 06:04:46;;;;;;;23.97;15.23;;;9.30;1.00;;;;;;5031239;28;20083;-51
2023/02/03 06:07:11;;;;;;;22.30;13.93;;;9.30;1.00;;;;;;5031043;28;20087;-50
2023/02/03 06:09:37;;;;;;;20.90;16.07;;;9.30;1.00;;;;;;5031486;28;20029;-49
2023/02/03 06:12:03;;;;;;;22.13;15.97;;;9.40;1.00;;;;;;5030945;28;20139;-49
2023/02/03 06:14:28;;;;;;;22.80;16.30;;;9.40;1.00;;;;;;5031788;28;20566;-50
2023/02/03 06:16:54;;;;;;;25.67;16.83;;;9.30;1.00;;;;;;5031394;28;20083;-49
2023/02/03 06:19:19;;;;;;;25.53;16.87;;;9.20;1.00;;;;;;5031697;28;20022;-52
2023/02/03 06:21:45;;;;;;;25.37;15.93;;;9.20;1.00;;;;;;5031398;28;20037;-52
2023/02/03 06:24:11;;;;;;;24.73;17.43;;;9.10;1.00;;;;;;5031210;28;20399;-49
2023/02/03 06:26:36;;;;;;;22.10;15.67;;;9.10;1.00;;;;;;5029734;28;20033;-51
2023/02/03 06:29:02;;;;;;;22.30;15.67;;;8.90;1.00;;;;;;5033506;28;20055;-50
2023/02/03 06:31:28;;;;;;;23.20;15.30;;;8.90;1.00;;;;;;5033579;28;20035;-50
2023/02/03 06:33:56;;;;;;;19.57;14.30;;;8.80;1.00;;;;;;5034814;28;20071;-54
2023/02/03 06:36:22;;;;;;;19.83;14.10;;;8.80;1.00;;;;;;5033203;28;20102;-50
2023/02/03 06:38:48;;;;;;;22.17;13.90;;;8.80;1.00;;;;;;5034621;28;20025;-51
2023/02/03 06:41:13;;;;;;;18.87;14.10;;;8.60;1.00;;;;;;5031771;28;20091;-49
2023/02/03 06:43:39;;;;;;;23.07;14.90;;;8.60;1.00;;;;;;5034970;28;20033;-49
2023/02/03 06:46:04;;;;;;;22.77;15.03;;;8.50;1.00;;;;;;5034790;28;20159;-53
2023/02/03 06:48:30;;;;;;;21.33;14.47;;;8.60;1.00;;;;;;5021826;28;20498;-50
2023/02/03 06:50:56;;;;;;;17.47;14.40;;;8.70;1.00;;;;;;5034526;28;20039;-49
2023/02/03 06:53:21;;;;;;;19.23;13.47;;;8.70;1.00;;;;;;5034571;28;20532;-49
2023/02/03 06:55:47;;;;;;;22.13;13.87;;;8.60;1.00;;;;;;5033997;28;20359;-50
2023/02/03 06:58:12;;;;;;;17.77;13.23;;;8.40;1.00;;;;;;5034706;28;20047;-51
2023/02/03 07:00:38;;;;;;;19.47;12.50;;;8.40;1.00;;;;;;5034218;28;20348;-50
2023/02/03 07:03:04;;;;;;;16.60;12.40;;;8.40;1.00;;;;;;5034123;28;20049;-53
2023/02/03 07:05:29;;;;;;;19.07;12.53;;;8.30;1.00;;;;;;5034417;28;20144;-50
2023/02/03 07:07:55;;;;;;;19.57;13.00;;;8.60;1.00;;;;;;5045760;28;20231;-50
2023/02/03 07:10:21;;;;;;;15.80;12.10;;;8.60;1.00;;;;;;5033908;28;20612;-51
2023/02/03 07:12:47;;;;;;;18.47;13.43;;;8.60;1.00;;;;;;5034145;28;20026;-50
2023/02/03 07:15:12;;;;;;;19.57;13.37;;;8.60;1.00;;;;;;5033548;28;20053;-50
2023/02/03 07:17:38;;;;;;;20.00;12.77;;;8.60;1.00;;;;;;5021901;28;20018;-49
2023/02/03 07:20:04;;;;;;;18.97;12.87;;;8.70;1.00;;;;;;5030934;28;20064;-50
2023/02/03 07:22:30;;;;;;;20.03;12.43;;;8.70;1.00;;;;;;5033749;28;20551;-52
2023/02/03 07:24:56;;;;;;;19.30;13.30;;;8.60;1.00;;;;;;5034329;28;20029;-50
2023/02/03 07:27:21;;;;;;;16.83;12.27;;;8.70;1.00;;;;;;5033545;28;20404;-51
2023/02/03 07:29:47;;;;;;;17.40;12.17;;;8.70;1.00;;;;;;5033894;28;20030;-50
2023/02/03 07:32:13;;;;;;;17.70;12.37;;;8.80;1.00;;;;;;5033288;28;20021;-49
2023/02/03 07:34:38;;;;;;;18.23;12.80;;;8.80;1.00;;;;;;5033851;28;20367;-49
2023/02/03 07:37:04;;;;;;;20.33;13.73;;;8.80;1.00;;;;;;5033449;28;20382;-49
2023/02/03 07:39:29;;;;;;;16.70;12.13;;;8.90;1.00;;;;;;5031910;28;20051;-50
2023/02/03 07:41:55;;;;;;;23.27;13.63;;;8.70;1.00;;;;;;5033018;28;20026;-51
2023/02/03 07:44:21;;;;;;;21.67;12.77;;;8.60;1.00;;;;;;5032297;28;20037;-49
2023/02/03 07:46:46;;;;;;;18.30;12.70;;;8.70;1.00;;;;;;5033074;28;20030;-49
2023/02/03 07:49:13;;;;;;;20.87;13.60;;;8.80;1.00;;;;;;5032683;28;20041;-51
2023/02/03 07:51:38;;;;;;;20.37;13.10;;;8.80;1.00;;;;;;5030751;28;20374;-53
2023/02/03 07:54:04;;;;;;;22.57;13.27;;;8.80;1.00;;;;;;5033668;28;20094;-49
2023/02/03 07:56:31;;;;;;;20.10;13.10;;;8.80;1.00;;;;;;5033111;28;20204;-48
2023/02/03 07:58:58;;;;;;;26.53;14.73;;;8.90;1.00;;;;;;5033450;28;20079;-51
2023/02/03 08:01:24;;;;;;;23.10;14.20;;;8.90;1.00;;;;;;5031527;28;20042;-50
2023/02/03 08:03:50;;;;;;;21.70;15.10;;;9.00;1.00;;;;;;5031846;28;20463;-59
2023/02/03 08:06:15;;;;;;;24.40;15.77;;;8.90;1.00;;;;;;5032869;28;20109;-53
2023/02/03 08:08:41;;;;;;;23.47;14.60;;;9.00;1.00;;;;;;5047385;28;20028;-50
2023/02/03 08:11:07;;;;;;;33.73;17.67;;;9.00;1.00;;;;;;5028233;28;20112;-51
2023/02/03 08:13:32;;;;;;;26.00;16.60;;;9.10;1.00;;;;;;5029643;28;20025;-48
2023/02/03 08:15:58;;;;;;;27.67;16.83;;;9.10;1.00;;;;;;5032800;28;20116;-53
2023/02/03 08:18:24;;;;;;;28.07;16.20;;;9.20;1.00;;;;;;5032782;28;20029;-47
2023/02/03 08:20:49;;;;;;;27.27;14.80;;;9.20;1.00;;;;;;5031186;28;20029;-48
2023/02/03 08:23:15;;;;;;;25.67;16.13;;;9.20;1.00;;;;;;5032993;28;20164;-47
2023/02/03 08:25:53;;;;;;;25.67;16.40;;;9.20;1.00;;;;;;5032391;28;20061;-47
2023/02/03 08:28:19;;;;;;;25.13;15.70;;;9.30;1.00;;;;;;5032540;28;20025;-47
2023/02/03 08:30:44;;;;;;;21.73;14.87;;;9.30;1.00;;;;;;5032825;28;20060;-48
2023/02/03 08:33:10;;;;;;;25.93;15.13;;;9.40;1.00;;;;;;5032524;28;20060;-48
2023/02/03 08:35:36;;;;;;;26.03;15.23;;;9.50;1.00;;;;;;5032345;28;20020;-46
2023/02/03 08:38:01;;;;;;;25.60;16.30;;;9.50;1.00;;;;;;5032798;28;20087;-47
2023/02/03 08:40:27;;;;;;;20.50;14.70;;;9.50;1.00;;;;;;5026977;28;21990;-47
2023/02/03 08:42:52;;;;;;;25.97;15.73;;;9.50;1.00;;;;;;5032449;28;20416;-46
2023/02/03 08:45:18;;;;;;;34.83;18.00;;;9.60;1.00;;;;;;5032333;28;20104;-48
2023/02/03 08:47:44;;;;;;;34.07;17.77;;;9.60;1.00;;;;;;5020078;28;20030;-49
2023/02/03 08:50:10;;;;;;;31.60;18.63;;;9.60;1.00;;;;;;5029595;28;20068;-47
2023/02/03 08:52:36;;;;;;;27.13;17.83;;;9.60;1.00;;;;;;5032192;28;20022;-46
2023/02/03 08:55:01;;;;;;;29.53;16.60;;;9.70;1.00;;;;;;5032339;28;20091;-48
2023/02/03 08:57:31;;;;;;;25.73;17.10;;;9.70;1.00;;;;;;5032440;28;20087;-47
2023/02/03 08:59:57;;;;;;;27.47;17.13;;;9.70;1.00;;;;;;5030962;28;20423;-48
2023/02/03 09:02:22;;;;;;;26.90;18.47;;;9.70;1.00;;;;;;5032275;28;20049;-48
2023/02/03 09:04:49;;;;;;;29.53;17.90;;;9.80;1.00;;;;;;5031799;28;20021;-47
2023/02/03 09:07:15;;;;;;;27.00;18.20;;;9.80;1.00;;;;;;5038812;28;20040;-48
2023/02/03 09:09:41;;;;;;;31.17;18.37;;;9.70;1.00;;;;;;5039145;28;20025;-47
2023/02/03 09:12:07;;;;;;;28.83;19.00;;;9.80;1.00;;;;;;5031614;28;20134;-49
2023/02/03 09:14:33;;;;;;;32.30;17.50;;;9.70;1.00;;;;;;5031541;28;20057;-47
2023/02/03 09:17:02;;;;;;;25.63;16.93;;;9.80;1.00;;;;;;5032103;28;20037;-47
2023/02/03 09:19:27;;;;;;;22.93;15.53;;;9.90;1.00;;;;;;5031260;28;20029;-46
2023/02/03 09:21:53;;;;;;;29.30;17.70;;;9.90;1.00;;;;;;5030786;28;20052;-47
2023/02/03 09:24:19;;;;;;;26.07;16.50;;;9.80;1.00;;;;;;5029654;28;20034;-47
2023/02/03 09:26:44;;;;;;;26.97;17.73;;;9.80;1.00;;;;;;5029594;28;20025;-47
2023/02/03 09:29:10;;;;;;;26.80;15.47;;;9.90;1.00;;;;;;5027338;28;20478;-47
2023/02/03 09:31:36;;;;;;;26.33;15.30;;;10.00;1.00;;;;;;5029243;28;20044;-51
2023/02/03 09:34:01;;;;;;;28.90;15.60;;;10.00;1.00;;;;;;5031646;28;20025;-47
2023/02/03 09:36:27;;;;;;;30.73;17.70;;;10.10;1.00;;;;;;5030472;28;20064;-48
2023/02/03 09:38:52;;;;;;;29.73;20.97;;;10.00;1.00;;;;;;5031848;28;20047;-49
2023/02/03 09:41:43;;;;;;;23.73;16.87;;;10.10;1.00;;;;;;5031407;28;20083;-47
2023/02/03 09:44:14;;;;;;;23.23;15.67;;;10.10;1.00;;;;;;5031186;28;20091;-47
2023/02/03 09:46:44;;;;;;;22.50;15.60;;;10.10;1.00;;;;;;5031048;28;20029;-49
2023/02/03 09:49:27;;;;;;;23.63;15.23;;;10.10;1.00;;;;;;5030262;28;20029;-47
2023/02/03 09:52:13;;;;;;;27.23;15.50;;;10.10;1.00;;;;;;5023831;28;20036;-47
2023/02/03 09:55:20;;;;;;;20.80;14.37;;;10.10;1.00;;;;;;5031404;28;20017;-47
2023/02/03 09:57:55;;;;;;;20.93;13.90;;;10.10;1.00;;;;;;5017980;28;20507;-46
2023/02/03 10:00:40;;;;;;;21.20;15.33;;;10.20;1.00;;;;;;5029839;28;20112;-47
2023/02/03 10:03:31;;;;;;;28.23;15.77;;;10.30;1.00;;;;;;5031784;28;20104;-47
2023/02/03 10:06:21;;;;;;;20.33;14.17;;;10.40;1.00;;;;;;5034963;28;20025;-47
2023/02/03 10:09:04;;;;;;;22.57;14.57;;;10.40;1.00;;;;;;5048321;28;20421;-48
2023/02/03 10:11:37;;;;;;;20.13;11.83;;;10.40;1.00;;;;;;5035433;28;20411;-48
2023/02/03 10:14:22;;;;;;;17.20;11.27;;;10.40;1.00;;;;;;5035250;28;20052;-46
2023/02/03 10:16:59;;;;;;;18.30;11.70;;;10.40;1.00;;;;;;5034173;28;20058;-47
2023/02/03 10:19:37;;;;;;;17.67;10.35;;;10.50;1.00;;;;;;5033871;28;20361;-48
2023/02/03 10:22:04;;;;;;;16.00;11.25;;;10.50;1.00;;;;;;5035214;28;20014;-48
2023/02/03 10:24:49;;;;;;;16.50;10.88;;;10.60;1.00;;;;;;5035280;28;20033;-48
2023/02/03 10:27:20;;;;;;;15.23;11.00;;;10.60;1.00;;;;;;5035130;28;20426;-47
2023/02/03 10:30:10;;;;;;;14.10;8.93;;;10.60;1.00;;;;;;5020593;28;20104;-46
2023/02/03 10:32:36;;;;;;;15.30;9.03;;;10.60;1.00;;;;;;5027315;28;20388;-47
2023/02/03 10:35:04;;;;;;;13.23;8.93;;;10.60;1.00;;;;;;5034177;28;20056;-46
2023/02/03 10:37:36;;;;;;;13.77;9.07;;;10.70;1.00;;;;;;5033092;28;20021;-48
2023/02/03 10:40:01;;;;;;;12.73;8.80;;;10.70;1.00;;;;;;5034718;28;20125;-47
2023/02/03 10:43:46;;;;;;;12.88;9.77;;;10.80;1.00;;;;;;5034797;28;20089;-47
2023/02/03 10:45:16;;;;;;;15.40;9.27;;;10.90;1.00;;;;;;5030771;28;20033;-48
2023/02/03 10:47:54;;;;;;;11.60;8.68;;;10.90;1.00;;;;;;5031403;28;20046;-47
2023/02/03 10:50:31;;;;;;;12.05;9.75;;;11.00;1.00;;;;;;5032676;28;20030;-47
2023/02/03 10:53:32;;;;;;;14.10;9.35;;;10.90;1.00;;;;;;5034911;28;20132;-48
2023/02/03 10:56:08;;;;;;;15.93;10.52;;;11.10;1.00;;;;;;5033956;28;20026;-48
2023/02/03 10:58:36;;;;;;;14.93;10.27;;;11.10;1.00;;;;;;5034835;28;20356;-48
2023/02/03 11:01:10;;;;;;;13.48;10.75;;;11.20;1.00;;;;;;5034443;28;20056;-47
2023/02/03 11:03:36;;;;;;;16.20;11.25;;;11.20;1.00;;;;;;5033813;28;20116;-47
2023/02/03 11:06:14;;;;;;;16.30;10.25;;;11.20;1.00;;;;;;5034257;28;20498;-46
2023/02/03 11:08:48;;;;;;;13.68;10.18;;;11.30;1.00;;;;;;5034642;28;20021;-46
2023/02/03 11:11:20;;;;;;;15.77;10.73;;;11.30;1.00;;;;;;5034002;28;20025;-46
2023/02/03 11:13:52;;;;;;;15.35;11.07;;;11.30;1.00;;;;;;5034565;28;20491;-46
2023/02/03 11:16:47;;;;;;;16.38;10.82;;;11.40;1.00;;;;;;5032103;28;20036;-46
2023/02/03 11:19:21;;;;;;;16.77;11.13;;;11.50;1.00;;;;;;5033296;28;20064;-47
2023/02/03 11:21:54;;;;;;;17.50;11.27;;;11.50;1.00;;;;;;5034506;28;20091;-47
2023/02/03 11:24:27;;;;;;;19.38;12.02;;;11.50;1.00;;;;;;5033362;28;20041;-46
2023/02/03 11:27:13;;;;;;;17.40;11.50;;;11.60;1.00;;;;;;5035530;28;20017;-46
2023/02/03 11:30:23;;;;;;;17.58;11.75;;;11.60;1.00;;;;;;5037926;28;20463;-46
2023/02/03 11:32:49;;;;;;;16.60;11.60;;;11.70;1.00;;;;;;5029440;28;20030;-47
2023/02/03 11:35:17;;;;;;;14.82;10.88;;;11.70;1.00;;;;;;5048855;28;20029;-47
2023/02/03 11:37:52;;;;;;;15.00;10.95;;;11.70;1.00;;;;;;5026339;28;20022;-47
2023/02/03 11:40:20;;;;;;;15.65;11.40;;;11.80;1.00;;;;;;5033688;28;20480;-47
2023/02/03 11:42:49;;;;;;;17.45;10.63;;;11.80;1.00;;;;;;5033262;28;20036;-47
2023/02/03 11:45:23;;;;;;;12.73;9.73;;;11.90;1.00;;;;;;5031844;28;20460;-47
2023/02/03 11:47:56;;;;;;;13.93;10.35;;;11.90;1.00;;;;;;5025114;28;20026;-46
2023/02/03 11:50:30;;;;;;;14.90;10.30;;;11.90;1.00;;;;;;5032282;28;20485;-51
2023/02/03 11:53:03;;;;;;;14.65;11.18;;;12.00;1.00;;;;;;5033374;28;20017;-47
2023/02/03 11:56:17;;;;;;;18.17;10.90;;;12.00;1.00;;;;;;5022460;28;20434;-48
2023/02/03 11:59:05;;;;;;;13.77;11.65;;;12.00;1.00;;;;;;5021246;28;20121;-47
2023/02/03 12:02:04;;;;;;;17.52;11.85;;;12.10;1.00;;;;;;5033152;28;20053;-48
2023/02/03 12:04:53;;;;;;;17.25;11.48;;;12.10;1.00;;;;;;5022689;28;20037;-50
2023/02/03 12:07:38;;;;;;;17.65;12.75;;;12.20;1.00;;;;;;5031690;28;20044;-47
2023/02/03 12:10:12;;;;;;;21.87;13.77;;;12.20;1.00;;;;;;5033626;28;20135;-48
2023/02/03 12:13:01;;;;;;;20.63;14.25;;;12.20;1.00;;;;;;5038746;28;20029;-51
2023/02/03 12:16:02;;;;;;;21.05;13.88;;;12.30;1.00;;;;;;5037817;28;20021;-48
2023/02/03 12:18:45;;;;;;;19.48;14.23;;;12.30;1.00;;;;;;5031525;28;20076;-47
2023/02/03 12:21:23;;;;;;;21.50;14.48;;;12.40;1.00;;;;;;5025005;28;20029;-47
2023/02/03 12:24:08;;;;;;;20.52;14.05;;;12.40;1.00;;;;;;5032963;28;20041;-47
2023/02/03 12:26:44;;;;;;;23.05;14.85;;;12.50;1.00;;;;;;5033217;28;20030;-47
2023/02/03 12:29:12;;;;;;;23.63;16.10;;;12.60;1.00;;;;;;5020081;28;20018;-49
2023/02/03 12:31:44;;;;;;;22.98;15.10;;;12.60;1.00;;;;;;5031185;28;20325;-51
2023/02/03 12:34:19;;;;;;;20.92;13.52;;;12.60;1.00;;;;;;5032734;28;20025;-51
2023/02/03 12:37:02;;;;;;;20.90;13.70;;;12.70;1.00;;;;;;5032278;28;20483;-47
2023/02/03 12:39:38;;;;;;;23.45;14.00;;;12.70;1.00;;;;;;5032913;28;20029;-48
2023/02/03 12:42:12;;;;;;;21.45;13.75;;;12.80;1.00;;;;;;5028597;28;20041;-48
2023/02/03 12:44:47;;;;;;;20.23;14.35;;;12.80;1.00;;;;;;5031886;28;20029;-47
2023/02/03 12:47:22;;;;;;;23.85;13.73;;;12.90;1.00;;;;;;5030665;28;20041;-49
2023/02/03 12:50:02;;;;;;;22.05;13.38;;;12.90;1.00;;;;;;5032016;28;20428;-48
2023/02/03 12:52:41;;;;;;;17.73;13.43;;;12.90;1.00;;;;;;5020710;28;20033;-47
2023/02/03 12:55:36;;;;;;;17.35;12.25;;;13.00;1.00;;;;;;5032431;28;20107;-48
2023/02/03 12:58:06;;;;;;;17.92;12.68;;;13.10;1.00;;;;;;5023006;28;20030;-49
2023/02/03 13:00:56;;;;;;;16.70;12.07;;;13.20;1.00;;;;;;5032061;28;20044;-48
2023/02/03 13:03:32;;;;;;;18.17;12.82;;;13.20;1.00;;;;;;5032713;28;20053;-48
2023/02/03 13:06:21;;;;;;;18.75;12.18;;;13.30;1.00;;;;;;5019762;28;20018;-48